createdAt,value
2023-08-26T00:06:02.053Z,7.28
2023-08-26T00:12:35.583Z,6.55
2023-08-26T00:18:40.129Z,7.85
2023-08-26T00:24:46.644Z,6.97
2023-08-26T00:31:04.134Z,6.57
2023-08-26T00:37:47.742Z,8.15
2023-08-26T00:44:01.328Z,6.95
2023-08-26T00:50:27.792Z,6.65
2023-08-26T00:56:46.296Z,5.45
2023-08-26T01:03:00.931Z,5.60
2023-08-26T01:09:08.463Z,6.07
2023-08-26T01:15:27.978Z,6.22
2023-08-26T01:21:41.750Z,7.00
2023-08-26T01:27:48.954Z,6.95
2023-08-26T01:34:17.527Z,7.15
2023-08-26T01:40:25.010Z,8.57
2023-08-26T01:46:43.542Z,7.90
2023-08-26T01:52:55.816Z,8.13
2023-08-26T01:59:17.629Z,8.13
2023-08-26T02:05:20.077Z,6.50
2023-08-26T02:12:00.712Z,5.88
2023-08-26T02:18:10.635Z,6.45
2023-08-26T02:24:31.937Z,6.30
2023-08-26T02:30:38.949Z,6.63
2023-08-26T02:37:04.920Z,6.32
2023-08-26T02:43:08.213Z,8.80
2023-08-26T02:49:19.835Z,7.50
2023-08-26T02:55:35.224Z,8.90
2023-08-26T03:02:16.153Z,8.77
2023-08-26T03:08:31.374Z,7.07
2023-08-26T03:14:56.936Z,9.60
2023-08-26T03:21:19.787Z,8.27
2023-08-26T03:27:23.979Z,9.40
2023-08-26T03:33:31.455Z,9.70
2023-08-26T03:39:54.911Z,8.90
2023-08-26T03:46:10.313Z,8.67
2023-08-26T03:52:55.132Z,7.80
2023-08-26T03:59:09.927Z,8.87
2023-08-26T04:05:42.865Z,7.57
2023-08-26T04:12:10.798Z,7.80
2023-08-26T04:18:20.274Z,7.73
2023-08-26T04:31:21.883Z,7.83
2023-08-26T04:38:30.437Z,8.13
2023-08-26T04:44:48.773Z,9.23
2023-08-26T04:51:03.882Z,9.27
2023-08-26T05:04:01.660Z,8.18
2023-08-26T05:10:50.964Z,8.43
2023-08-26T05:17:13.572Z,9.23
2023-08-26T05:23:25.080Z,9.90
2023-08-26T05:29:42.375Z,9.30
2023-08-26T05:36:08.193Z,8.90
2023-08-26T05:48:54.494Z,8.65
2023-08-26T05:55:00.784Z,10.02
2023-08-26T06:01:14.654Z,9.85
2023-08-26T06:07:38.274Z,8.32
2023-08-26T06:13:41.285Z,8.57
2023-08-26T06:20:00.514Z,8.30
2023-08-26T06:26:04.311Z,7.75
2023-08-26T06:32:23.852Z,8.18
2023-08-26T06:38:38.366Z,9.52
2023-08-26T06:44:40.811Z,7.70
2023-08-26T06:50:44.274Z,7.93
2023-08-26T06:56:57.772Z,7.97
2023-08-26T07:03:24.195Z,7.30
2023-08-26T07:09:31.869Z,7.72
2023-08-26T07:15:39.343Z,6.57
2023-08-26T07:22:04.122Z,8.45
2023-08-26T07:28:21.484Z,7.47
2023-08-26T07:34:33.241Z,7.57
2023-08-26T07:40:43.475Z,7.47
2023-08-26T07:46:56.704Z,7.65
2023-08-26T07:53:17.173Z,7.03
2023-08-26T07:59:35.026Z,7.28
2023-08-26T08:06:07.246Z,7.20
2023-08-26T08:12:18.926Z,6.80
2023-08-26T08:18:30.504Z,7.30
2023-08-26T08:24:42.122Z,7.50
2023-08-26T08:30:46.911Z,6.45
2023-08-26T08:37:00.060Z,7.15
2023-08-26T08:43:06.730Z,7.25
2023-08-26T08:55:47.790Z,6.35
2023-08-26T09:02:01.195Z,7.53
2023-08-26T09:08:04.592Z,6.55
2023-08-26T09:20:28.510Z,6.75
2023-08-26T09:26:32.249Z,5.57
2023-08-26T09:38:55.069Z,9.70
2023-08-26T09:45:08.055Z,5.80
2023-08-26T09:51:10.053Z,5.57
2023-08-26T09:57:13.499Z,5.22
2023-08-26T10:03:21.086Z,5.00
2023-08-26T10:09:52.570Z,4.63
2023-08-26T10:16:08.190Z,5.20
2023-08-26T10:22:11.579Z,4.80
2023-08-26T10:28:15.094Z,4.53
2023-08-26T10:34:21.519Z,5.35
2023-08-26T10:40:34.045Z,6.45
2023-08-26T10:46:54.616Z,5.78
2023-08-26T10:53:15.217Z,5.28
2023-08-26T11:06:10.330Z,3.67
2023-08-26T11:12:43.910Z,4.40
2023-08-26T11:18:55.764Z,5.53
2023-08-26T11:25:00.254Z,4.90
2023-08-26T11:31:05.680Z,4.45
2023-08-26T11:37:12.174Z,4.78
2023-08-26T11:43:25.658Z,4.47
2023-08-26T11:49:44.442Z,5.80
2023-08-26T11:56:04.038Z,4.68
2023-08-26T12:02:27.574Z,5.38
2023-08-26T12:08:35.874Z,6.10
2023-08-26T12:14:46.468Z,4.40
2023-08-26T12:21:11.036Z,4.70
2023-08-26T12:27:46.636Z,4.28
2023-08-26T12:34:00.031Z,4.55
2023-08-26T12:40:06.628Z,4.75
2023-08-26T12:46:09.212Z,5.45
2023-08-26T12:52:22.657Z,5.55
2023-08-26T12:58:47.968Z,4.70
2023-08-26T13:04:56.950Z,5.57
2023-08-26T13:11:05.164Z,5.22
2023-08-26T13:17:09.466Z,4.40
2023-08-26T13:23:15.116Z,4.47
2023-08-26T13:29:23.888Z,5.88
2023-08-26T13:35:27.028Z,5.45
2023-08-26T13:41:45.590Z,5.03
2023-08-26T13:47:48.176Z,5.18
2023-08-26T13:53:52.581Z,5.47
2023-08-26T13:59:57.013Z,4.60
2023-08-26T14:06:08.525Z,4.57
2023-08-26T14:12:19.050Z,4.15
2023-08-26T14:18:30.036Z,4.30
2023-08-26T14:24:32.984Z,4.60
2023-08-26T14:30:38.229Z,4.53
2023-08-26T14:36:49.171Z,4.60
2023-08-26T14:42:54.448Z,4.43
2023-08-26T14:48:56.942Z,4.38
2023-08-26T14:55:07.363Z,5.25
2023-08-26T15:01:20.473Z,5.32
2023-08-26T15:07:28.409Z,5.18
2023-08-26T15:13:48.035Z,6.45
2023-08-26T15:19:50.410Z,3.67
2023-08-26T15:25:55.933Z,3.83
2023-08-26T15:31:58.420Z,3.42
2023-08-26T15:38:12.845Z,4.13
2023-08-26T15:44:15.381Z,3.17
2023-08-26T15:50:17.789Z,3.60
2023-08-26T15:56:20.269Z,3.90
2023-08-26T16:02:22.752Z,3.80
2023-08-26T16:08:27.180Z,3.83
2023-08-26T16:14:31.486Z,3.88
2023-08-26T16:20:46.968Z,4.15
2023-08-26T16:26:50.686Z,4.07
2023-08-26T16:33:12.277Z,4.88
2023-08-26T16:39:17.663Z,4.95
2023-08-26T16:45:29.131Z,5.32
2023-08-26T16:51:32.589Z,5.47
2023-08-26T16:57:50.381Z,6.20
2023-08-26T17:03:56.652Z,10.65
2023-08-26T17:10:06.444Z,6.93
2023-08-26T17:16:15.643Z,5.63
2023-08-26T17:22:26.560Z,7.18
2023-08-26T17:28:28.570Z,9.77
2023-08-26T17:34:32.037Z,9.38
2023-08-26T17:40:47.647Z,25.20
2023-08-26T17:46:54.537Z,14.25
2023-08-26T17:53:01.530Z,15.00
2023-08-26T17:59:32.210Z,11.80
2023-08-26T18:05:39.498Z,10.25
2023-08-26T18:11:44.295Z,14.15
2023-08-26T18:17:49.836Z,12.93
2023-08-26T18:24:01.293Z,12.27
2023-08-26T18:30:08.120Z,120.65
2023-08-26T18:36:09.879Z,89.07
2023-08-26T18:42:12.056Z,59.03
2023-08-26T18:48:15.093Z,59.83
2023-08-26T18:54:24.412Z,40.55
2023-08-26T19:00:49.933Z,53.75
2023-08-26T19:06:55.359Z,42.85
2023-08-26T19:13:00.510Z,38.17
2023-08-26T19:19:06.682Z,32.67
2023-08-26T19:25:09.002Z,18.63
2023-08-26T19:31:11.293Z,18.02
2023-08-26T19:37:19.509Z,17.58
2023-08-26T19:43:24.356Z,12.88
2023-08-26T19:49:26.240Z,10.82
2023-08-26T19:55:50.839Z,10.32
2023-08-26T20:01:57.259Z,11.13
2023-08-26T20:08:00.536Z,14.57
2023-08-26T20:14:05.358Z,14.43
2023-08-26T20:20:14.841Z,14.00
2023-08-26T20:26:31.073Z,10.93
2023-08-26T20:32:33.933Z,8.63
2023-08-26T20:38:37.373Z,8.00
2023-08-26T20:44:41.607Z,6.55
2023-08-26T20:50:46.942Z,8.15
2023-08-26T20:56:54.795Z,8.35
2023-08-26T21:03:04.402Z,7.20
2023-08-26T21:09:08.211Z,8.73
2023-08-26T21:15:25.386Z,7.00
2023-08-26T21:21:30.942Z,9.38
2023-08-26T21:27:38.204Z,8.27
2023-08-26T21:34:01.764Z,7.30
2023-08-26T21:40:09.425Z,7.00
2023-08-26T21:46:13.994Z,8.65
2023-08-26T21:52:19.394Z,7.65
2023-08-26T21:58:21.873Z,9.57
2023-08-26T22:04:33.211Z,8.52
2023-08-26T22:10:45.838Z,6.93
2023-08-26T22:16:49.499Z,6.95
2023-08-26T22:22:56.936Z,7.15
2023-08-26T22:29:08.294Z,7.68
2023-08-26T22:35:24.806Z,9.35
2023-08-26T22:41:39.318Z,10.35
2023-08-26T22:47:43.535Z,7.70
2023-08-26T22:53:53.262Z,7.38
2023-08-26T22:59:56.746Z,6.55
2023-08-26T23:06:05.227Z,9.20
2023-08-26T23:12:13.680Z,8.43
2023-08-26T23:18:18.176Z,10.38
2023-08-26T23:24:21.677Z,8.10
2023-08-26T23:30:24.139Z,9.00
2023-08-26T23:36:40.692Z,8.38
2023-08-26T23:42:48.223Z,6.45
2023-08-26T23:48:52.664Z,7.90
2023-08-26T23:55:13.195Z,8.05
